sensor_id;sensor_type;location;lat;lon;timestamp;temperature;humidity
2477;DHT22;1249;51.270;6.756;2023-05-10T00:01:08;19.50;99.90
2477;DHT22;1249;51.270;6.756;2023-05-10T00:03:34;19.50;99.90
2477;DHT22;1249;51.270;6.756;2023-05-10T00:05:59;19.50;99.90
2477;DHT22;1249;51.270;6.756;2023-05-10T00:08:25;19.50;99.90
2477;DHT22;1249;51.270;6.756;2023-05-10T00:10:50;19.50;99.90
2477;DHT22;1249;51.270;6.756;2023-05-10T00:13:16;19.50;99.90
2477;DHT22;1249;51.270;6.756;2023-05-10T00:15:41;19.50;99.90
2477;DHT22;1249;51.270;6.756;2023-05-10T00:18:07;19.50;99.90
2477;DHT22;1249;51.270;6.756;2023-05-10T00:20:33;19.50;99.90
2477;DHT22;1249;51.270;6.756;2023-05-10T00:22:58;19.50;99.90
2477;DHT22;1249;51.270;6.756;2023-05-10T00:25:24;19.50;99.90
2477;DHT22;1249;51.270;6.756;2023-05-10T00:27:49;19.50;99.90
2477;DHT22;1249;51.270;6.756;2023-05-10T00:30:16;19.50;99.90
2477;DHT22;1249;51.270;6.756;2023-05-10T00:32:42;19.50;99.90
2477;DHT22;1249;51.270;6.756;2023-05-10T00:35:08;19.50;99.90
2477;DHT22;1249;51.270;6.756;2023-05-10T00:37:34;19.50;99.90
2477;DHT22;1249;51.270;6.756;2023-05-10T00:39:59;19.50;99.90
2477;DHT22;1249;51.270;6.756;2023-05-10T00:42:25;19.40;99.90
2477;DHT22;1249;51.270;6.756;2023-05-10T00:44:50;19.40;99.90
2477;DHT22;1249;51.270;6.756;2023-05-10T00:47:16;19.40;99.90
2477;DHT22;1249;51.270;6.756;2023-05-10T00:49:42;19.40;99.90
2477;DHT22;1249;51.270;6.756;2023-05-10T00:52:09;19.40;99.90
2477;DHT22;1249;51.270;6.756;2023-05-10T00:54:35;19.40;99.90
2477;DHT22;1249;51.270;6.756;2023-05-10T00:57:01;19.40;99.90
2477;DHT22;1249;51.270;6.756;2023-05-10T00:59:26;19.40;99.90
2477;DHT22;1249;51.270;6.756;2023-05-10T01:01:52;19.40;99.90
2477;DHT22;1249;51.270;6.756;2023-05-10T01:04:18;19.40;99.90
2477;DHT22;1249;51.270;6.756;2023-05-10T01:06:45;19.30;99.90
2477;DHT22;1249;51.270;6.756;2023-05-10T01:09:11;19.40;99.90
2477;DHT22;1249;51.270;6.756;2023-05-10T01:11:38;19.30;99.90
2477;DHT22;1249;51.270;6.756;2023-05-10T01:14:05;19.30;99.90
2477;DHT22;1249;51.270;6.756;2023-05-10T01:16:36;19.30;99.90
2477;DHT22;1249;51.270;6.756;2023-05-10T01:19:18;19.20;99.90
2477;DHT22;1249;51.270;6.756;2023-05-10T01:24:42;19.30;99.90
2477;DHT22;1249;51.270;6.756;2023-05-10T01:33:10;19.20;99.90
2477;DHT22;1249;51.270;6.756;2023-05-10T01:35:44;19.30;99.90
2477;DHT22;1249;51.270;6.756;2023-05-10T01:38:19;19.30;99.90
2477;DHT22;1249;51.270;6.756;2023-05-10T01:40:59;19.20;99.90
2477;DHT22;1249;51.270;6.756;2023-05-10T01:43:33;19.20;99.90
2477;DHT22;1249;51.270;6.756;2023-05-10T01:46:05;19.20;99.90
2477;DHT22;1249;51.270;6.756;2023-05-10T01:48:39;19.20;99.90
2477;DHT22;1249;51.270;6.756;2023-05-10T01:51:06;19.20;99.90
2477;DHT22;1249;51.270;6.756;2023-05-10T01:53:36;19.20;99.90
2477;DHT22;1249;51.270;6.756;2023-05-10T01:56:03;19.20;99.90
2477;DHT22;1249;51.270;6.756;2023-05-10T01:58:31;19.10;99.90
2477;DHT22;1249;51.270;6.756;2023-05-10T02:01:00;19.10;99.90
2477;DHT22;1249;51.270;6.756;2023-05-10T02:03:27;19.10;99.90
2477;DHT22;1249;51.270;6.756;2023-05-10T02:05:54;19.10;99.90
2477;DHT22;1249;51.270;6.756;2023-05-10T02:08:22;19.10;99.90
2477;DHT22;1249;51.270;6.756;2023-05-10T02:10:50;19.10;99.90
2477;DHT22;1249;51.270;6.756;2023-05-10T02:13:18;19.10;99.90
2477;DHT22;1249;51.270;6.756;2023-05-10T02:15:46;19.10;99.90
2477;DHT22;1249;51.270;6.756;2023-05-10T02:18:13;19.10;99.90
2477;DHT22;1249;51.270;6.756;2023-05-10T02:20:42;19.10;99.90
2477;DHT22;1249;51.270;6.756;2023-05-10T02:23:08;19.10;99.90
2477;DHT22;1249;51.270;6.756;2023-05-10T02:25:36;19.10;99.90
2477;DHT22;1249;51.270;6.756;2023-05-10T02:28:04;19.10;99.90
2477;DHT22;1249;51.270;6.756;2023-05-10T02:30:32;19.10;99.90
2477;DHT22;1249;51.270;6.756;2023-05-10T02:32:59;19.10;99.90
2477;DHT22;1249;51.270;6.756;2023-05-10T02:35:26;19.10;99.90
2477;DHT22;1249;51.270;6.756;2023-05-10T02:37:52;19.10;99.90
2477;DHT22;1249;51.270;6.756;2023-05-10T02:40:19;19.20;99.90
2477;DHT22;1249;51.270;6.756;2023-05-10T02:42:47;19.10;99.90
2477;DHT22;1249;51.270;6.756;2023-05-10T02:45:19;19.10;99.90
2477;DHT22;1249;51.270;6.756;2023-05-10T02:47:45;19.10;99.90
2477;DHT22;1249;51.270;6.756;2023-05-10T02:50:11;19.10;99.90
2477;DHT22;1249;51.270;6.756;2023-05-10T02:52:46;19.10;99.90
2477;DHT22;1249;51.270;6.756;2023-05-10T02:55:15;19.10;99.90
2477;DHT22;1249;51.270;6.756;2023-05-10T02:57:47;19.10;99.90
2477;DHT22;1249;51.270;6.756;2023-05-10T03:00:13;19.10;99.90
2477;DHT22;1249;51.270;6.756;2023-05-10T03:02:39;19.10;99.90
2477;DHT22;1249;51.270;6.756;2023-05-10T03:05:05;19.10;99.90
2477;DHT22;1249;51.270;6.756;2023-05-10T03:07:31;19.10;99.90
2477;DHT22;1249;51.270;6.756;2023-05-10T03:09:57;19.10;99.90
2477;DHT22;1249;51.270;6.756;2023-05-10T03:18:28;19.10;99.90
2477;DHT22;1249;51.270;6.756;2023-05-10T03:21:01;19.10;99.90
2477;DHT22;1249;51.270;6.756;2023-05-10T03:23:38;19.10;99.90
2477;DHT22;1249;51.270;6.756;2023-05-10T03:26:06;19.10;99.90
2477;DHT22;1249;51.270;6.756;2023-05-10T03:28:34;19.10;99.90
2477;DHT22;1249;51.270;6.756;2023-05-10T03:31:00;19.10;99.90
2477;DHT22;1249;51.270;6.756;2023-05-10T03:33:27;19.10;99.90
2477;DHT22;1249;51.270;6.756;2023-05-10T03:35:52;19.00;99.90
2477;DHT22;1249;51.270;6.756;2023-05-10T03:38:18;19.00;99.90
2477;DHT22;1249;51.270;6.756;2023-05-10T03:40:44;19.00;99.90
2477;DHT22;1249;51.270;6.756;2023-05-10T03:43:09;19.00;99.90
2477;DHT22;1249;51.270;6.756;2023-05-10T03:45:35;19.00;99.90
2477;DHT22;1249;51.270;6.756;2023-05-10T03:48:03;19.10;99.90
2477;DHT22;1249;51.270;6.756;2023-05-10T03:50:28;19.00;99.90
2477;DHT22;1249;51.270;6.756;2023-05-10T03:52:54;19.00;99.90
2477;DHT22;1249;51.270;6.756;2023-05-10T03:55:19;19.10;99.90
2477;DHT22;1249;51.270;6.756;2023-05-10T03:57:45;19.10;99.90
2477;DHT22;1249;51.270;6.756;2023-05-10T04:00:11;19.00;99.90
2477;DHT22;1249;51.270;6.756;2023-05-10T04:02:37;19.00;99.90
2477;DHT22;1249;51.270;6.756;2023-05-10T04:05:03;19.00;99.90
2477;DHT22;1249;51.270;6.756;2023-05-10T04:07:28;19.10;99.90
2477;DHT22;1249;51.270;6.756;2023-05-10T04:09:54;19.10;99.90
2477;DHT22;1249;51.270;6.756;2023-05-10T04:12:20;19.00;99.90
2477;DHT22;1249;51.270;6.756;2023-05-10T04:14:45;19.00;99.90
2477;DHT22;1249;51.270;6.756;2023-05-10T04:17:11;19.00;99.90
2477;DHT22;1249;51.270;6.756;2023-05-10T04:19:36;19.00;99.90
2477;DHT22;1249;51.270;6.756;2023-05-10T04:22:02;19.10;99.90
2477;DHT22;1249;51.270;6.756;2023-05-10T04:24:28;19.10;99.90
2477;DHT22;1249;51.270;6.756;2023-05-10T04:26:54;19.00;99.90
2477;DHT22;1249;51.270;6.756;2023-05-10T04:29:20;19.00;99.90
2477;DHT22;1249;51.270;6.756;2023-05-10T04:31:46;19.00;99.90
2477;DHT22;1249;51.270;6.756;2023-05-10T04:34:11;19.00;99.90
2477;DHT22;1249;51.270;6.756;2023-05-10T04:36:37;19.00;99.90
2477;DHT22;1249;51.270;6.756;2023-05-10T04:39:03;19.00;99.90
2477;DHT22;1249;51.270;6.756;2023-05-10T04:41:29;19.00;99.90
2477;DHT22;1249;51.270;6.756;2023-05-10T04:43:55;19.00;99.90
2477;DHT22;1249;51.270;6.756;2023-05-10T04:46:20;19.00;99.90
2477;DHT22;1249;51.270;6.756;2023-05-10T04:48:46;19.00;99.90
2477;DHT22;1249;51.270;6.756;2023-05-10T04:51:12;19.00;99.90
2477;DHT22;1249;51.270;6.756;2023-05-10T04:53:37;19.00;99.90
2477;DHT22;1249;51.270;6.756;2023-05-10T04:56:03;19.00;99.90
2477;DHT22;1249;51.270;6.756;2023-05-10T04:58:29;19.00;99.90
2477;DHT22;1249;51.270;6.756;2023-05-10T05:00:54;19.10;99.90
2477;DHT22;1249;51.270;6.756;2023-05-10T05:03:20;19.00;99.90
2477;DHT22;1249;51.270;6.756;2023-05-10T05:05:46;19.00;99.90
2477;DHT22;1249;51.270;6.756;2023-05-10T05:08:11;19.00;99.90
2477;DHT22;1249;51.270;6.756;2023-05-10T05:10:37;19.10;99.90
2477;DHT22;1249;51.270;6.756;2023-05-10T05:13:02;19.10;99.90
2477;DHT22;1249;51.270;6.756;2023-05-10T05:15:31;19.00;99.90
2477;DHT22;1249;51.270;6.756;2023-05-10T05:17:56;19.10;99.90
2477;DHT22;1249;51.270;6.756;2023-05-10T05:20:22;19.10;99.90
2477;DHT22;1249;51.270;6.756;2023-05-10T05:22:48;19.10;99.90
2477;DHT22;1249;51.270;6.756;2023-05-10T05:25:13;19.10;99.90
2477;DHT22;1249;51.270;6.756;2023-05-10T05:27:40;19.10;99.90
2477;DHT22;1249;51.270;6.756;2023-05-10T05:30:06;19.10;99.90
2477;DHT22;1249;51.270;6.756;2023-05-10T05:32:32;19.10;99.90
2477;DHT22;1249;51.270;6.756;2023-05-10T05:34:57;19.10;99.90
2477;DHT22;1249;51.270;6.756;2023-05-10T05:37:23;19.10;99.90
2477;DHT22;1249;51.270;6.756;2023-05-10T05:39:50;19.10;99.90
2477;DHT22;1249;51.270;6.756;2023-05-10T05:42:15;19.10;99.90
2477;DHT22;1249;51.270;6.756;2023-05-10T05:44:43;19.00;99.90
2477;DHT22;1249;51.270;6.756;2023-05-10T05:47:08;19.10;99.90
2477;DHT22;1249;51.270;6.756;2023-05-10T05:49:34;19.10;99.90
2477;DHT22;1249;51.270;6.756;2023-05-10T05:52:01;19.10;99.90
2477;DHT22;1249;51.270;6.756;2023-05-10T05:54:27;19.10;99.90
2477;DHT22;1249;51.270;6.756;2023-05-10T05:57:00;19.00;99.90
2477;DHT22;1249;51.270;6.756;2023-05-10T05:59:26;19.10;99.90
2477;DHT22;1249;51.270;6.756;2023-05-10T06:01:51;19.10;99.90
2477;DHT22;1249;51.270;6.756;2023-05-10T06:04:18;19.10;99.90
2477;DHT22;1249;51.270;6.756;2023-05-10T06:06:43;19.20;99.90
2477;DHT22;1249;51.270;6.756;2023-05-10T06:09:09;19.20;99.90
2477;DHT22;1249;51.270;6.756;2023-05-10T06:11:35;19.10;99.90
2477;DHT22;1249;51.270;6.756;2023-05-10T06:14:02;19.10;99.90
2477;DHT22;1249;51.270;6.756;2023-05-10T06:16:29;19.20;99.90
2477;DHT22;1249;51.270;6.756;2023-05-10T06:18:54;19.20;99.90
2477;DHT22;1249;51.270;6.756;2023-05-10T06:21:20;19.20;99.90
2477;DHT22;1249;51.270;6.756;2023-05-10T06:23:46;19.30;99.90
2477;DHT22;1249;51.270;6.756;2023-05-10T06:26:11;19.30;99.90
2477;DHT22;1249;51.270;6.756;2023-05-10T06:28:37;19.30;99.90
2477;DHT22;1249;51.270;6.756;2023-05-10T06:31:06;19.30;99.90
2477;DHT22;1249;51.270;6.756;2023-05-10T06:33:32;19.40;99.90
2477;DHT22;1249;51.270;6.756;2023-05-10T06:35:58;19.40;99.90
2477;DHT22;1249;51.270;6.756;2023-05-10T06:38:23;19.40;99.90
2477;DHT22;1249;51.270;6.756;2023-05-10T06:40:49;19.40;99.90
2477;DHT22;1249;51.270;6.756;2023-05-10T06:43:14;19.40;99.90
2477;DHT22;1249;51.270;6.756;2023-05-10T06:45:40;19.30;99.90
2477;DHT22;1249;51.270;6.756;2023-05-10T06:48:06;19.30;99.90
2477;DHT22;1249;51.270;6.756;2023-05-10T06:50:32;19.30;99.90
2477;DHT22;1249;51.270;6.756;2023-05-10T06:52:58;19.50;99.90
2477;DHT22;1249;51.270;6.756;2023-05-10T06:55:24;19.40;99.90
2477;DHT22;1249;51.270;6.756;2023-05-10T06:57:50;19.40;99.90
2477;DHT22;1249;51.270;6.756;2023-05-10T07:00:17;19.40;99.90
2477;DHT22;1249;51.270;6.756;2023-05-10T07:02:42;19.50;99.90
2477;DHT22;1249;51.270;6.756;2023-05-10T07:05:08;19.50;99.90
2477;DHT22;1249;51.270;6.756;2023-05-10T07:07:34;19.50;99.90
2477;DHT22;1249;51.270;6.756;2023-05-10T07:10:00;19.50;99.90
2477;DHT22;1249;51.270;6.756;2023-05-10T07:12:26;19.50;99.90
2477;DHT22;1249;51.270;6.756;2023-05-10T07:14:51;19.50;99.90
2477;DHT22;1249;51.270;6.756;2023-05-10T07:17:17;19.60;99.90
2477;DHT22;1249;51.270;6.756;2023-05-10T07:19:43;19.50;99.90
2477;DHT22;1249;51.270;6.756;2023-05-10T07:22:08;19.60;99.90
2477;DHT22;1249;51.270;6.756;2023-05-10T07:24:34;19.60;99.90
2477;DHT22;1249;51.270;6.756;2023-05-10T07:26:59;19.70;99.90
2477;DHT22;1249;51.270;6.756;2023-05-10T07:29:25;19.70;99.90
2477;DHT22;1249;51.270;6.756;2023-05-10T07:31:51;19.70;99.90
2477;DHT22;1249;51.270;6.756;2023-05-10T07:34:17;19.70;99.90
2477;DHT22;1249;51.270;6.756;2023-05-10T07:36:42;19.80;99.90
2477;DHT22;1249;51.270;6.756;2023-05-10T07:39:08;19.80;99.90
2477;DHT22;1249;51.270;6.756;2023-05-10T07:41:33;19.70;99.90
2477;DHT22;1249;51.270;6.756;2023-05-10T07:43:59;19.70;99.90
2477;DHT22;1249;51.270;6.756;2023-05-10T07:46:25;19.70;99.90
2477;DHT22;1249;51.270;6.756;2023-05-10T07:48:50;19.70;99.90
2477;DHT22;1249;51.270;6.756;2023-05-10T07:51:16;19.70;99.90
2477;DHT22;1249;51.270;6.756;2023-05-10T07:53:41;19.70;99.90
2477;DHT22;1249;51.270;6.756;2023-05-10T07:56:25;19.70;99.90
2477;DHT22;1249;51.270;6.756;2023-05-10T07:58:52;19.80;99.90
2477;DHT22;1249;51.270;6.756;2023-05-10T08:01:18;19.70;99.90
2477;DHT22;1249;51.270;6.756;2023-05-10T08:03:44;19.80;99.90
2477;DHT22;1249;51.270;6.756;2023-05-10T08:06:09;19.80;99.90
2477;DHT22;1249;51.270;6.756;2023-05-10T08:08:35;19.80;99.90
2477;DHT22;1249;51.270;6.756;2023-05-10T08:11:01;19.90;99.90
2477;DHT22;1249;51.270;6.756;2023-05-10T08:13:27;19.90;99.90
2477;DHT22;1249;51.270;6.756;2023-05-10T08:15:52;19.90;99.90
2477;DHT22;1249;51.270;6.756;2023-05-10T08:18:21;19.90;99.90
2477;DHT22;1249;51.270;6.756;2023-05-10T08:20:47;19.80;99.90
2477;DHT22;1249;51.270;6.756;2023-05-10T08:23:12;19.90;99.90
2477;DHT22;1249;51.270;6.756;2023-05-10T08:25:38;19.90;99.90
2477;DHT22;1249;51.270;6.756;2023-05-10T08:28:04;20.00;99.90
2477;DHT22;1249;51.270;6.756;2023-05-10T08:30:30;20.00;99.90
2477;DHT22;1249;51.270;6.756;2023-05-10T08:32:55;20.10;99.90
2477;DHT22;1249;51.270;6.756;2023-05-10T08:35:21;20.10;99.90
2477;DHT22;1249;51.270;6.756;2023-05-10T08:37:46;20.30;99.90
2477;DHT22;1249;51.270;6.756;2023-05-10T08:40:12;20.40;99.90
2477;DHT22;1249;51.270;6.756;2023-05-10T08:42:43;20.50;99.90
2477;DHT22;1249;51.270;6.756;2023-05-10T08:45:11;20.40;99.90
2477;DHT22;1249;51.270;6.756;2023-05-10T08:47:37;20.30;99.90
2477;DHT22;1249;51.270;6.756;2023-05-10T08:50:04;20.20;99.90
2477;DHT22;1249;51.270;6.756;2023-05-10T08:52:30;20.10;99.90
2477;DHT22;1249;51.270;6.756;2023-05-10T08:54:57;20.10;99.90
2477;DHT22;1249;51.270;6.756;2023-05-10T08:57:23;20.00;99.90
2477;DHT22;1249;51.270;6.756;2023-05-10T08:59:49;20.00;99.90
2477;DHT22;1249;51.270;6.756;2023-05-10T09:02:14;20.00;99.90
2477;DHT22;1249;51.270;6.756;2023-05-10T09:04:40;20.00;99.90
2477;DHT22;1249;51.270;6.756;2023-05-10T09:07:07;20.00;99.90
2477;DHT22;1249;51.270;6.756;2023-05-10T09:09:33;20.10;99.90
2477;DHT22;1249;51.270;6.756;2023-05-10T09:12:00;20.10;99.90
2477;DHT22;1249;51.270;6.756;2023-05-10T09:14:25;20.20;99.90
2477;DHT22;1249;51.270;6.756;2023-05-10T09:16:54;20.30;99.90
2477;DHT22;1249;51.270;6.756;2023-05-10T09:19:20;20.50;99.90
2477;DHT22;1249;51.270;6.756;2023-05-10T09:21:46;20.60;99.90
2477;DHT22;1249;51.270;6.756;2023-05-10T09:24:12;20.60;99.90
2477;DHT22;1249;51.270;6.756;2023-05-10T09:26:46;20.70;99.90
2477;DHT22;1249;51.270;6.756;2023-05-10T09:29:15;20.70;99.90
2477;DHT22;1249;51.270;6.756;2023-05-10T09:34:15;20.60;99.90
2477;DHT22;1249;51.270;6.756;2023-05-10T09:36:55;20.70;99.90
2477;DHT22;1249;51.270;6.756;2023-05-10T09:39:36;20.80;99.90
2477;DHT22;1249;51.270;6.756;2023-05-10T09:42:07;21.00;99.90
2477;DHT22;1249;51.270;6.756;2023-05-10T09:44:33;20.90;99.90
2477;DHT22;1249;51.270;6.756;2023-05-10T09:47:02;20.90;99.90
2477;DHT22;1249;51.270;6.756;2023-05-10T09:49:29;20.90;99.90
2477;DHT22;1249;51.270;6.756;2023-05-10T09:52:02;20.90;99.90
2477;DHT22;1249;51.270;6.756;2023-05-10T09:54:28;21.00;99.90
2477;DHT22;1249;51.270;6.756;2023-05-10T09:56:54;21.10;99.90
2477;DHT22;1249;51.270;6.756;2023-05-10T09:59:20;21.20;99.90
2477;DHT22;1249;51.270;6.756;2023-05-10T10:01:56;21.30;99.90
2477;DHT22;1249;51.270;6.756;2023-05-10T10:04:22;21.30;99.90
2477;DHT22;1249;51.270;6.756;2023-05-10T10:07:04;21.20;99.90
2477;DHT22;1249;51.270;6.756;2023-05-10T10:09:30;21.10;99.90
2477;DHT22;1249;51.270;6.756;2023-05-10T10:11:56;21.00;99.90
2477;DHT22;1249;51.270;6.756;2023-05-10T10:14:22;20.90;99.90
2477;DHT22;1249;51.270;6.756;2023-05-10T10:16:49;20.90;99.90
2477;DHT22;1249;51.270;6.756;2023-05-10T10:19:16;20.80;99.90
2477;DHT22;1249;51.270;6.756;2023-05-10T10:21:42;20.80;99.90
2477;DHT22;1249;51.270;6.756;2023-05-10T10:24:07;20.70;99.90
2477;DHT22;1249;51.270;6.756;2023-05-10T10:26:37;20.70;99.90
2477;DHT22;1249;51.270;6.756;2023-05-10T10:29:29;20.70;99.90
2477;DHT22;1249;51.270;6.756;2023-05-10T10:32:35;20.60;99.90
2477;DHT22;1249;51.270;6.756;2023-05-10T10:34:54;20.60;99.90
2477;DHT22;1249;51.270;6.756;2023-05-10T10:37:21;20.60;99.90
2477;DHT22;1249;51.270;6.756;2023-05-10T10:39:48;20.60;99.90
2477;DHT22;1249;51.270;6.756;2023-05-10T10:42:44;20.60;99.90
2477;DHT22;1249;51.270;6.756;2023-05-10T10:45:13;20.60;99.90
2477;DHT22;1249;51.270;6.756;2023-05-10T10:47:39;20.60;99.90
2477;DHT22;1249;51.270;6.756;2023-05-10T10:50:06;20.60;99.90
2477;DHT22;1249;51.270;6.756;2023-05-10T10:52:44;20.70;99.90
2477;DHT22;1249;51.270;6.756;2023-05-10T10:55:12;20.90;99.90
2477;DHT22;1249;51.270;6.756;2023-05-10T11:03:06;21.20;99.90
2477;DHT22;1249;51.270;6.756;2023-05-10T11:08:31;21.20;99.90
2477;DHT22;1249;51.270;6.756;2023-05-10T11:13:40;21.10;99.90
2477;DHT22;1249;51.270;6.756;2023-05-10T11:18:40;21.00;99.90
2477;DHT22;1249;51.270;6.756;2023-05-10T11:21:08;21.00;99.90
2477;DHT22;1249;51.270;6.756;2023-05-10T11:23:50;21.00;99.90
2477;DHT22;1249;51.270;6.756;2023-05-10T11:26:17;21.10;99.90
2477;DHT22;1249;51.270;6.756;2023-05-10T11:28:48;21.10;99.90
2477;DHT22;1249;51.270;6.756;2023-05-10T11:31:18;21.10;99.90
2477;DHT22;1249;51.270;6.756;2023-05-10T11:33:44;21.20;99.90
2477;DHT22;1249;51.270;6.756;2023-05-10T11:36:12;21.20;99.90
2477;DHT22;1249;51.270;6.756;2023-05-10T11:38:37;21.20;99.90
2477;DHT22;1249;51.270;6.756;2023-05-10T11:41:03;21.20;99.90
2477;DHT22;1249;51.270;6.756;2023-05-10T11:43:28;21.20;99.90
2477;DHT22;1249;51.270;6.756;2023-05-10T11:45:56;21.30;99.90
2477;DHT22;1249;51.270;6.756;2023-05-10T11:48:21;21.30;99.90
2477;DHT22;1249;51.270;6.756;2023-05-10T11:50:49;21.40;99.90
2477;DHT22;1249;51.270;6.756;2023-05-10T11:53:15;21.40;99.90
2477;DHT22;1249;51.270;6.756;2023-05-10T11:55:40;21.40;99.90
2477;DHT22;1249;51.270;6.756;2023-05-10T11:58:06;21.50;99.90
2477;DHT22;1249;51.270;6.756;2023-05-10T12:00:32;21.50;99.90
2477;DHT22;1249;51.270;6.756;2023-05-10T12:02:57;21.60;99.90
2477;DHT22;1249;51.270;6.756;2023-05-10T12:05:24;21.60;99.90
2477;DHT22;1249;51.270;6.756;2023-05-10T12:07:49;21.70;99.90
2477;DHT22;1249;51.270;6.756;2023-05-10T12:10:15;21.70;99.90
2477;DHT22;1249;51.270;6.756;2023-05-10T12:12:46;21.70;99.90
2477;DHT22;1249;51.270;6.756;2023-05-10T12:15:22;21.80;99.90
2477;DHT22;1249;51.270;6.756;2023-05-10T12:17:48;21.80;99.90
2477;DHT22;1249;51.270;6.756;2023-05-10T12:20:15;21.80;99.90
2477;DHT22;1249;51.270;6.756;2023-05-10T12:22:53;21.90;99.90
2477;DHT22;1249;51.270;6.756;2023-05-10T12:25:21;21.90;99.90
2477;DHT22;1249;51.270;6.756;2023-05-10T12:27:54;22.10;99.90
2477;DHT22;1249;51.270;6.756;2023-05-10T12:30:25;22.30;99.90
2477;DHT22;1249;51.270;6.756;2023-05-10T12:32:52;22.50;99.90
2477;DHT22;1249;51.270;6.756;2023-05-10T12:35:18;22.70;99.90
2477;DHT22;1249;51.270;6.756;2023-05-10T12:37:48;23.10;99.90
2477;DHT22;1249;51.270;6.756;2023-05-10T12:40:15;23.30;99.90
2477;DHT22;1249;51.270;6.756;2023-05-10T12:42:41;23.60;99.90
2477;DHT22;1249;51.270;6.756;2023-05-10T12:45:07;24.00;99.90
2477;DHT22;1249;51.270;6.756;2023-05-10T12:47:33;24.00;99.90
2477;DHT22;1249;51.270;6.756;2023-05-10T12:50:00;24.00;99.90
2477;DHT22;1249;51.270;6.756;2023-05-10T12:52:27;24.10;99.90
2477;DHT22;1249;51.270;6.756;2023-05-10T12:54:53;24.00;99.90
2477;DHT22;1249;51.270;6.756;2023-05-10T12:57:21;23.90;99.90
2477;DHT22;1249;51.270;6.756;2023-05-10T12:59:47;23.80;99.90
2477;DHT22;1249;51.270;6.756;2023-05-10T13:02:12;23.80;99.90
2477;DHT22;1249;51.270;6.756;2023-05-10T13:04:40;23.60;99.90
2477;DHT22;1249;51.270;6.756;2023-05-10T13:07:06;23.60;99.90
2477;DHT22;1249;51.270;6.756;2023-05-10T13:09:32;23.50;99.90
2477;DHT22;1249;51.270;6.756;2023-05-10T13:11:58;23.50;99.90
2477;DHT22;1249;51.270;6.756;2023-05-10T13:14:24;23.40;99.90
2477;DHT22;1249;51.270;6.756;2023-05-10T13:16:50;23.40;99.90
2477;DHT22;1249;51.270;6.756;2023-05-10T13:19:16;23.30;99.90
2477;DHT22;1249;51.270;6.756;2023-05-10T13:21:43;23.20;99.90
2477;DHT22;1249;51.270;6.756;2023-05-10T13:24:10;23.20;99.90
2477;DHT22;1249;51.270;6.756;2023-05-10T13:26:36;23.10;99.90
2477;DHT22;1249;51.270;6.756;2023-05-10T13:29:02;23.10;99.90
2477;DHT22;1249;51.270;6.756;2023-05-10T13:31:28;23.10;99.90
2477;DHT22;1249;51.270;6.756;2023-05-10T13:33:54;23.00;99.90
2477;DHT22;1249;51.270;6.756;2023-05-10T13:36:19;23.00;99.90
2477;DHT22;1249;51.270;6.756;2023-05-10T13:38:45;22.90;99.90
2477;DHT22;1249;51.270;6.756;2023-05-10T13:41:11;22.90;99.90
2477;DHT22;1249;51.270;6.756;2023-05-10T13:43:36;22.80;99.90
2477;DHT22;1249;51.270;6.756;2023-05-10T13:46:02;22.80;99.90
2477;DHT22;1249;51.270;6.756;2023-05-10T13:48:28;22.80;99.90
2477;DHT22;1249;51.270;6.756;2023-05-10T13:50:53;22.80;99.90
2477;DHT22;1249;51.270;6.756;2023-05-10T13:53:19;22.80;99.90
2477;DHT22;1249;51.270;6.756;2023-05-10T13:55:44;22.80;99.90
2477;DHT22;1249;51.270;6.756;2023-05-10T13:58:10;22.80;99.90
2477;DHT22;1249;51.270;6.756;2023-05-10T14:00:36;22.90;99.90
2477;DHT22;1249;51.270;6.756;2023-05-10T14:03:01;23.10;99.90
2477;DHT22;1249;51.270;6.756;2023-05-10T14:05:27;23.30;99.90
2477;DHT22;1249;51.270;6.756;2023-05-10T14:07:53;23.60;99.90
2477;DHT22;1249;51.270;6.756;2023-05-10T14:10:19;23.80;99.90
2477;DHT22;1249;51.270;6.756;2023-05-10T14:12:45;24.00;99.90
2477;DHT22;1249;51.270;6.756;2023-05-10T14:15:10;24.30;99.90
2477;DHT22;1249;51.270;6.756;2023-05-10T14:17:36;24.70;99.90
2477;DHT22;1249;51.270;6.756;2023-05-10T14:20:02;25.00;99.90
2477;DHT22;1249;51.270;6.756;2023-05-10T14:22:29;25.20;99.90
2477;DHT22;1249;51.270;6.756;2023-05-10T14:24:54;25.80;99.90
2477;DHT22;1249;51.270;6.756;2023-05-10T14:27:20;26.30;99.90
2477;DHT22;1249;51.270;6.756;2023-05-10T14:29:47;26.80;96.80
2477;DHT22;1249;51.270;6.756;2023-05-10T14:32:12;27.10;94.00
2477;DHT22;1249;51.270;6.756;2023-05-10T14:34:38;26.80;92.00
2477;DHT22;1249;51.270;6.756;2023-05-10T14:37:04;26.50;90.70
2477;DHT22;1249;51.270;6.756;2023-05-10T14:39:30;26.30;91.70
2477;DHT22;1249;51.270;6.756;2023-05-10T14:41:56;26.00;91.80
2477;DHT22;1249;51.270;6.756;2023-05-10T14:44:21;25.90;92.30
2477;DHT22;1249;51.270;6.756;2023-05-10T14:46:47;26.10;91.50
2477;DHT22;1249;51.270;6.756;2023-05-10T14:49:13;26.30;91.40
2477;DHT22;1249;51.270;6.756;2023-05-10T14:51:39;26.70;89.30
2477;DHT22;1249;51.270;6.756;2023-05-10T14:54:04;27.20;85.20
2477;DHT22;1249;51.270;6.756;2023-05-10T14:56:30;27.60;84.20
2477;DHT22;1249;51.270;6.756;2023-05-10T14:58:56;28.00;82.10
2477;DHT22;1249;51.270;6.756;2023-05-10T15:01:22;28.10;81.30
2477;DHT22;1249;51.270;6.756;2023-05-10T15:03:47;28.30;79.20
2477;DHT22;1249;51.270;6.756;2023-05-10T15:06:14;28.40;78.40
2477;DHT22;1249;51.270;6.756;2023-05-10T15:08:41;28.00;77.90
2477;DHT22;1249;51.270;6.756;2023-05-10T15:11:07;27.50;78.90
2477;DHT22;1249;51.270;6.756;2023-05-10T15:13:32;27.10;79.40
2477;DHT22;1249;51.270;6.756;2023-05-10T15:15:58;27.00;79.10
2477;DHT22;1249;51.270;6.756;2023-05-10T15:18:23;27.20;80.50
2477;DHT22;1249;51.270;6.756;2023-05-10T15:20:49;27.40;78.90
2477;DHT22;1249;51.270;6.756;2023-05-10T15:23:14;27.50;78.80
2477;DHT22;1249;51.270;6.756;2023-05-10T15:25:40;27.60;78.80
2477;DHT22;1249;51.270;6.756;2023-05-10T15:28:06;27.80;77.90
2477;DHT22;1249;51.270;6.756;2023-05-10T15:30:31;28.00;76.40
2477;DHT22;1249;51.270;6.756;2023-05-10T15:32:57;28.30;77.30
2477;DHT22;1249;51.270;6.756;2023-05-10T15:35:23;28.30;76.90
2477;DHT22;1249;51.270;6.756;2023-05-10T15:37:48;28.00;76.40
2477;DHT22;1249;51.270;6.756;2023-05-10T15:40:14;28.00;74.20
2477;DHT22;1249;51.270;6.756;2023-05-10T15:42:40;27.90;74.30
2477;DHT22;1249;51.270;6.756;2023-05-10T15:45:06;27.90;74.40
2477;DHT22;1249;51.270;6.756;2023-05-10T15:47:32;27.80;75.20
2477;DHT22;1249;51.270;6.756;2023-05-10T15:49:58;27.70;75.00
2477;DHT22;1249;51.270;6.756;2023-05-10T15:52:23;27.60;73.80
2477;DHT22;1249;51.270;6.756;2023-05-10T15:54:49;27.30;74.70
2477;DHT22;1249;51.270;6.756;2023-05-10T15:57:15;27.00;75.20
2477;DHT22;1249;51.270;6.756;2023-05-10T15:59:41;26.60;77.40
2477;DHT22;1249;51.270;6.756;2023-05-10T16:02:08;26.20;76.50
2477;DHT22;1249;51.270;6.756;2023-05-10T16:04:35;25.70;77.70
2477;DHT22;1249;51.270;6.756;2023-05-10T16:07:01;25.40;76.70
2477;DHT22;1249;51.270;6.756;2023-05-10T16:09:27;25.10;80.50
2477;DHT22;1249;51.270;6.756;2023-05-10T16:11:52;24.90;81.20
2477;DHT22;1249;51.270;6.756;2023-05-10T16:14:18;24.70;82.30
2477;DHT22;1249;51.270;6.756;2023-05-10T16:16:46;24.60;83.30
2477;DHT22;1249;51.270;6.756;2023-05-10T16:19:12;24.40;85.00
2477;DHT22;1249;51.270;6.756;2023-05-10T16:21:37;24.30;86.30
2477;DHT22;1249;51.270;6.756;2023-05-10T16:24:03;24.20;87.40
2477;DHT22;1249;51.270;6.756;2023-05-10T16:26:29;24.10;88.40
2477;DHT22;1249;51.270;6.756;2023-05-10T16:28:54;24.00;89.40
2477;DHT22;1249;51.270;6.756;2023-05-10T16:31:20;23.90;90.10